createdAt,value
2019-01-09T00:03:13.884Z,77.35
2019-01-09T00:06:02.653Z,76.97
2019-01-09T00:08:51.544Z,76.99
2019-01-09T00:11:40.334Z,75.72
2019-01-09T00:14:29.143Z,76.12
2019-01-09T00:20:27.392Z,75.60
2019-01-09T00:23:16.186Z,75.40
2019-01-09T00:26:05.145Z,76.52
2019-01-09T00:28:54.004Z,74.70
2019-01-09T00:31:42.810Z,75.78
2019-01-09T00:34:31.602Z,76.57
2019-01-09T00:37:20.411Z,76.42
2019-01-09T00:40:30.224Z,74.96
2019-01-09T00:43:19.081Z,75.32
2019-01-09T00:46:07.894Z,75.97
2019-01-09T00:48:56.763Z,76.24
2019-01-09T00:51:45.645Z,75.19
2019-01-09T00:54:34.502Z,74.81
2019-01-09T00:57:23.307Z,74.20
2019-01-09T01:04:03.347Z,75.06
2019-01-09T01:10:59.559Z,78.36
2019-01-09T01:14:27.044Z,79.90
2019-01-09T01:17:36.800Z,81.73
2019-01-09T01:20:46.546Z,83.65
2019-01-09T01:24:14.050Z,82.37
2019-01-09T01:27:23.745Z,82.47
2019-01-09T01:30:51.247Z,80.74
2019-01-09T01:33:34.174Z,81.26
2019-01-09T01:36:43.942Z,81.84
2019-01-09T01:40:11.421Z,80.72
2019-01-09T01:43:21.194Z,80.96
2019-01-09T01:46:48.678Z,80.44
2019-01-09T01:50:16.177Z,79.64
2019-01-09T01:53:43.676Z,78.86
2019-01-09T01:57:11.181Z,78.13
2019-01-09T02:00:20.887Z,78.20
2019-01-09T02:03:30.654Z,78.19
2019-01-09T02:06:58.146Z,77.89
2019-01-09T02:10:25.651Z,77.78
2019-01-09T02:13:35.407Z,78.31
2019-01-09T02:16:45.155Z,78.42
2019-01-09T02:19:54.867Z,78.64
2019-01-09T02:23:04.576Z,79.83
2019-01-09T02:26:14.293Z,80.93
2019-01-09T02:29:41.773Z,85.04
2019-01-09T02:32:31.248Z,87.79
2019-01-09T02:35:20.036Z,88.46
2019-01-09T02:38:09.099Z,88.39
2019-01-09T02:40:57.885Z,89.48
2019-01-09T02:43:46.703Z,89.07
2019-01-09T02:46:35.501Z,88.24
2019-01-09T02:49:24.307Z,87.95
2019-01-09T02:52:13.141Z,86.81
2019-01-09T02:55:01.926Z,85.22
2019-01-09T02:57:56.691Z,83.25
2019-01-09T03:00:41.231Z,81.38
2019-01-09T03:03:30.039Z,78.98
2019-01-09T03:06:23.071Z,78.99
2019-01-09T03:09:09.363Z,77.26
2019-01-09T03:11:58.226Z,76.62
2019-01-09T03:14:47.030Z,77.02
2019-01-09T03:17:35.814Z,76.15
2019-01-09T03:20:24.618Z,76.10
2019-01-09T03:23:13.406Z,75.85
2019-01-09T03:26:02.221Z,74.85
2019-01-09T03:28:51.339Z,73.71
2019-01-09T03:31:40.150Z,72.72
2019-01-09T03:34:21.788Z,72.59
2019-01-09T03:37:10.597Z,72.15
2019-01-09T03:39:59.388Z,72.35
2019-01-09T03:42:48.196Z,71.60
2019-01-09T03:45:36.981Z,71.58
2019-01-09T03:48:25.787Z,71.73
2019-01-09T03:51:14.595Z,71.54
2019-01-09T03:54:03.380Z,72.08
2019-01-09T03:56:52.192Z,71.79
2019-01-09T03:59:40.991Z,71.98
2019-01-09T04:02:29.806Z,72.34
2019-01-09T04:05:18.591Z,71.28
2019-01-09T04:08:07.393Z,71.24
2019-01-09T04:10:56.183Z,71.43
2019-01-09T04:13:44.987Z,71.00
2019-01-09T04:16:33.774Z,71.29
2019-01-09T04:19:22.585Z,71.27
2019-01-09T04:28:15.042Z,71.53
2019-01-09T04:31:03.828Z,72.90
2019-01-09T04:33:45.613Z,72.58
2019-01-09T04:36:34.399Z,73.24
2019-01-09T04:39:23.204Z,73.48
2019-01-09T04:42:12.321Z,74.77
2019-01-09T04:45:01.124Z,82.87
2019-01-09T04:47:49.922Z,85.54
2019-01-09T04:50:38.727Z,86.65
2019-01-09T04:53:27.534Z,86.07
2019-01-09T04:56:16.320Z,85.59
2019-01-09T04:59:05.122Z,84.32
2019-01-09T05:01:53.992Z,81.71
2019-01-09T05:04:42.797Z,79.05
2019-01-09T05:07:31.615Z,78.73
2019-01-09T05:10:20.397Z,76.08
2019-01-09T05:13:09.180Z,75.99
2019-01-09T05:15:57.998Z,74.75
2019-01-09T05:18:46.791Z,74.05
2019-01-09T05:21:35.604Z,73.55
2019-01-09T05:24:24.529Z,73.52
2019-01-09T05:27:32.365Z,73.47
2019-01-09T05:30:21.161Z,72.71
2019-01-09T05:33:09.968Z,71.81
2019-01-09T05:35:52.209Z,72.07
2019-01-09T05:38:41.168Z,71.38
2019-01-09T05:41:29.938Z,72.17
2019-01-09T05:44:18.760Z,71.81
2019-01-09T05:47:07.550Z,72.17
2019-01-09T05:49:56.353Z,71.78
2019-01-09T05:52:45.143Z,71.59
2019-01-09T05:55:33.968Z,71.37
2019-01-09T05:58:22.735Z,71.15
2019-01-09T06:01:11.846Z,70.16
2019-01-09T06:04:00.633Z,71.17
2019-01-09T06:06:49.514Z,70.54
2019-01-09T06:09:38.313Z,69.61
2019-01-09T06:12:27.111Z,69.19
2019-01-09T06:15:15.933Z,69.16
2019-01-09T06:18:04.735Z,69.10
2019-01-09T06:20:53.529Z,68.59
2019-01-09T06:23:42.339Z,69.06
2019-01-09T06:26:31.477Z,69.05
2019-01-09T06:29:20.439Z,69.23
2019-01-09T06:32:09.281Z,68.85
2019-01-09T06:34:51.335Z,69.48
2019-01-09T06:37:40.144Z,69.46
2019-01-09T06:40:28.922Z,70.21
2019-01-09T06:49:11.471Z,70.09
2019-01-09T06:52:00.260Z,70.51
2019-01-09T06:54:49.204Z,69.99
2019-01-09T06:57:39.684Z,69.80
2019-01-09T07:00:28.467Z,70.00
2019-01-09T07:03:17.250Z,69.37
2019-01-09T07:06:06.202Z,69.10
2019-01-09T07:08:54.943Z,69.76
2019-01-09T07:11:43.780Z,70.16
2019-01-09T07:14:32.833Z,70.08
2019-01-09T07:17:21.714Z,71.14
2019-01-09T07:20:10.505Z,71.14
2019-01-09T07:25:53.974Z,72.29
2019-01-09T07:28:42.779Z,72.93
2019-01-09T07:31:31.553Z,73.39
2019-01-09T07:34:13.141Z,72.43
2019-01-09T07:37:01.927Z,72.32
2019-01-09T07:39:50.734Z,73.52
2019-01-09T07:42:39.541Z,73.07
2019-01-09T07:45:28.331Z,71.62
2019-01-09T07:48:17.140Z,71.37
2019-01-09T07:51:05.922Z,70.87
2019-01-09T07:53:56.347Z,70.24
2019-01-09T07:56:45.308Z,69.67
2019-01-09T07:59:34.184Z,69.97
2019-01-09T08:02:22.976Z,69.06
2019-01-09T08:05:11.787Z,68.75
2019-01-09T08:08:00.601Z,68.41
2019-01-09T08:10:49.403Z,68.40
2019-01-09T08:13:38.259Z,68.49
2019-01-09T08:16:27.101Z,69.34
2019-01-09T08:19:15.899Z,69.03
2019-01-09T08:22:04.708Z,68.82
2019-01-09T08:24:53.501Z,68.41
2019-01-09T08:27:42.351Z,68.14
2019-01-09T08:30:31.151Z,67.66
2019-01-09T08:33:38.967Z,67.30
2019-01-09T08:36:20.233Z,67.43
2019-01-09T08:39:09.021Z,67.41
2019-01-09T08:41:57.828Z,67.38
2019-01-09T08:44:46.641Z,68.87
2019-01-09T08:47:35.424Z,67.23
2019-01-09T08:50:24.232Z,65.90
2019-01-09T08:53:13.045Z,66.82
2019-01-09T08:56:01.844Z,67.14
2019-01-09T08:58:50.659Z,67.33
2019-01-09T09:01:39.470Z,67.15
2019-01-09T09:04:47.287Z,66.82
2019-01-09T09:07:36.460Z,67.37
2019-01-09T09:10:25.250Z,66.53
2019-01-09T09:13:34.986Z,67.38
2019-01-09T09:16:23.775Z,66.64
2019-01-09T09:22:06.536Z,67.08
2019-01-09T09:27:49.244Z,66.78
2019-01-09T09:30:38.068Z,66.64
2019-01-09T09:33:26.879Z,66.01
2019-01-09T09:36:08.953Z,65.71
2019-01-09T09:38:57.739Z,66.52
2019-01-09T09:41:46.571Z,66.70
2019-01-09T09:44:35.354Z,65.89
2019-01-09T09:47:43.190Z,64.95
2019-01-09T09:50:31.994Z,65.04
2019-01-09T09:53:20.775Z,65.37
2019-01-09T09:56:09.578Z,65.96
2019-01-09T09:58:58.442Z,66.23
2019-01-09T10:01:47.256Z,65.76
2019-01-09T10:04:36.042Z,66.11
2019-01-09T10:07:24.856Z,66.09
2019-01-09T10:10:34.545Z,64.43
2019-01-09T10:13:23.359Z,64.61
2019-01-09T10:16:31.171Z,65.04
2019-01-09T10:19:19.981Z,65.44
2019-01-09T10:22:28.095Z,65.86
2019-01-09T10:25:16.911Z,65.85
2019-01-09T10:28:05.701Z,65.85
2019-01-09T10:30:54.520Z,64.77
2019-01-09T10:33:43.317Z,63.78
2019-01-09T10:36:25.229Z,64.24
2019-01-09T10:39:14.020Z,63.17
2019-01-09T10:42:02.827Z,62.35
2019-01-09T10:44:51.625Z,62.22
2019-01-09T10:47:40.433Z,62.42
2019-01-09T10:50:29.217Z,63.30
2019-01-09T10:53:18.042Z,63.41
2019-01-09T10:56:06.880Z,63.47
2019-01-09T10:58:55.689Z,63.65
2019-01-09T11:01:44.494Z,63.07
2019-01-09T11:04:33.302Z,63.33
2019-01-09T11:07:22.122Z,62.65
2019-01-09T11:10:31.843Z,62.50
2019-01-09T11:13:20.641Z,63.02
2019-01-09T11:16:09.443Z,63.25
2019-01-09T11:18:58.249Z,63.17
2019-01-09T11:21:47.036Z,63.44
2019-01-09T11:24:35.837Z,63.67
2019-01-09T11:27:24.863Z,63.46
2019-01-09T11:30:34.579Z,63.28
2019-01-09T11:33:23.362Z,63.12
2019-01-09T11:36:05.404Z,64.24
2019-01-09T11:38:55.952Z,64.54
2019-01-09T11:41:44.716Z,65.12
2019-01-09T11:44:33.505Z,66.02
2019-01-09T11:47:22.312Z,65.61
2019-01-09T11:53:20.884Z,62.65
2019-01-09T11:56:09.813Z,62.60
2019-01-09T11:58:58.639Z,61.70
2019-01-09T12:01:47.434Z,62.61
2019-01-09T12:04:36.241Z,61.38
2019-01-09T12:10:39.860Z,62.23
2019-01-09T12:13:28.645Z,62.32
2019-01-09T12:16:17.463Z,62.52
2019-01-09T12:19:06.448Z,62.23
2019-01-09T12:25:30.930Z,61.83
2019-01-09T12:28:38.762Z,61.39
2019-01-09T12:31:20.551Z,61.92
2019-01-09T12:34:09.353Z,61.76
2019-01-09T12:36:58.154Z,62.58
2019-01-09T12:39:46.968Z,62.98
2019-01-09T12:42:35.753Z,62.78
2019-01-09T12:45:24.612Z,63.05
2019-01-09T12:48:13.437Z,63.13
2019-01-09T12:51:02.281Z,63.90
2019-01-09T12:53:51.089Z,64.03
2019-01-09T12:56:39.873Z,64.35
2019-01-09T12:59:28.677Z,64.36
2019-01-09T13:02:17.461Z,65.30
2019-01-09T13:05:06.335Z,65.05
2019-01-09T13:07:55.122Z,65.13
2019-01-09T13:10:43.948Z,65.32
2019-01-09T13:16:27.217Z,65.44
2019-01-09T13:19:16.017Z,65.68
2019-01-09T13:21:55.896Z,65.21
2019-01-09T13:24:44.702Z,65.53
2019-01-09T13:27:26.270Z,65.47
2019-01-09T13:30:17.535Z,65.39
2019-01-09T13:33:06.314Z,65.55
2019-01-09T13:35:55.115Z,64.79
2019-01-09T13:38:43.920Z,65.93
2019-01-09T13:41:32.701Z,66.55
2019-01-09T13:44:21.512Z,66.60
2019-01-09T13:47:10.300Z,66.06
2019-01-09T13:49:59.104Z,65.07
2019-01-09T13:52:47.951Z,63.76
2019-01-09T13:55:36.765Z,63.94
2019-01-09T13:58:25.638Z,63.58
2019-01-09T14:01:14.455Z,64.36
2019-01-09T14:04:03.255Z,64.55
2019-01-09T14:06:52.108Z,65.27
2019-01-09T14:09:40.916Z,66.50
2019-01-09T14:12:29.695Z,67.93
2019-01-09T14:15:39.418Z,68.52
2019-01-09T14:18:28.209Z,68.86
2019-01-09T14:21:17.015Z,69.48
2019-01-09T14:23:58.679Z,69.16
2019-01-09T14:26:47.483Z,68.65
2019-01-09T14:29:36.269Z,69.24
2019-01-09T14:32:25.068Z,68.90
2019-01-09T14:35:13.946Z,68.63
2019-01-09T14:38:02.759Z,68.69
2019-01-09T14:40:51.558Z,67.43
2019-01-09T14:43:40.364Z,68.22
2019-01-09T14:46:29.147Z,68.42
2019-01-09T14:49:17.960Z,67.67
2019-01-09T14:52:06.747Z,68.89
2019-01-09T14:54:55.546Z,69.13
2019-01-09T15:01:13.324Z,70.04
2019-01-09T15:04:02.204Z,70.34
2019-01-09T15:06:51.063Z,70.82
2019-01-09T15:09:39.817Z,71.26
2019-01-09T15:12:28.603Z,70.64
2019-01-09T15:18:32.449Z,71.63
2019-01-09T15:21:21.259Z,72.42
2019-01-09T15:24:08.398Z,71.99
2019-01-09T15:26:53.693Z,71.47
2019-01-09T15:29:42.502Z,72.98
2019-01-09T15:32:31.292Z,72.55
2019-01-09T15:35:39.526Z,72.98
2019-01-09T15:38:28.313Z,72.77
2019-01-09T15:41:17.123Z,72.72
2019-01-09T15:44:25.016Z,72.98
2019-01-09T15:47:13.824Z,73.55
2019-01-09T15:50:02.618Z,74.55
2019-01-09T15:52:51.487Z,74.33
2019-01-09T15:55:40.268Z,74.64
2019-01-09T15:58:29.083Z,74.37
2019-01-09T16:01:17.900Z,73.97
2019-01-09T16:04:06.690Z,74.11
2019-01-09T16:06:55.496Z,74.18
2019-01-09T16:09:44.282Z,74.66
2019-01-09T16:12:33.101Z,74.76
2019-01-09T16:15:21.887Z,75.00
2019-01-09T16:17:51.533Z,75.12
2019-01-09T16:20:40.295Z,74.62
2019-01-09T16:23:29.093Z,74.46
2019-01-09T16:26:10.375Z,74.87
2019-01-09T16:28:59.186Z,75.15
2019-01-09T16:31:47.972Z,75.37
2019-01-09T16:34:36.775Z,76.31
2019-01-09T16:37:25.559Z,77.14
2019-01-09T16:40:35.283Z,77.49
2019-01-09T16:43:24.091Z,77.38
2019-01-09T16:46:12.868Z,78.22
2019-01-09T16:49:01.748Z,78.27
2019-01-09T16:51:50.542Z,77.99
2019-01-09T16:54:41.074Z,78.61
2019-01-09T16:57:29.858Z,78.68
2019-01-09T17:00:41.301Z,78.46
2019-01-09T17:03:30.090Z,79.69
2019-01-09T17:06:18.924Z,80.72
2019-01-09T17:12:15.796Z,79.19
2019-01-09T17:15:25.496Z,79.74
2019-01-09T17:18:14.308Z,78.87
2019-01-09T17:21:03.100Z,78.47
2019-01-09T17:23:51.905Z,77.89
2019-01-09T17:26:40.703Z,77.89
2019-01-09T17:29:29.519Z,78.27
2019-01-09T17:32:18.322Z,78.46
2019-01-09T17:35:07.414Z,78.29
2019-01-09T17:37:56.266Z,78.77
2019-01-09T17:40:45.081Z,78.36
2019-01-09T17:43:33.869Z,79.42
2019-01-09T17:46:22.680Z,79.91
2019-01-09T17:49:11.459Z,79.43
2019-01-09T17:52:00.274Z,80.03
2019-01-09T17:54:49.076Z,80.00
2019-01-09T17:57:37.868Z,79.72
2019-01-09T18:00:47.595Z,79.77
2019-01-09T18:03:36.382Z,80.36
2019-01-09T18:06:25.194Z,80.85
2019-01-09T18:09:13.985Z,80.55
2019-01-09T18:12:02.798Z,80.76
2019-01-09T18:14:51.591Z,80.79
2019-01-09T18:20:34.532Z,80.05
2019-01-09T18:23:23.348Z,79.69
2019-01-09T18:26:05.247Z,79.81
2019-01-09T18:28:54.055Z,79.63
2019-01-09T18:32:03.763Z,79.37
2019-01-09T18:34:52.649Z,79.32
2019-01-09T18:38:02.397Z,79.26
2019-01-09T18:41:12.158Z,80.03
2019-01-09T18:44:21.858Z,79.69
2019-01-09T18:47:51.096Z,79.17
2019-01-09T18:51:00.856Z,79.73
2019-01-09T18:54:08.754Z,79.74
2019-01-09T18:56:57.540Z,78.91
2019-01-09T18:59:46.350Z,79.47
2019-01-09T19:02:35.154Z,79.84
2019-01-09T19:05:24.018Z,79.63
2019-01-09T19:08:12.980Z,79.50
2019-01-09T19:11:07.719Z,79.92
2019-01-09T19:13:52.409Z,79.40
2019-01-09T19:16:41.193Z,78.77
2019-01-09T19:19:49.365Z,78.47
2019-01-09T19:25:39.018Z,78.26
2019-01-09T19:28:27.815Z,77.25
2019-01-09T19:31:35.981Z,78.11
2019-01-09T19:34:24.794Z,78.51
2019-01-09T19:37:13.768Z,78.88
2019-01-09T19:40:02.987Z,78.17
2019-01-09T19:42:51.836Z,78.17
2019-01-09T19:45:40.713Z,78.10
2019-01-09T19:51:57.154Z,79.01
2019-01-09T20:01:29.932Z,78.50
2019-01-09T20:04:19.443Z,79.80
2019-01-09T20:23:54.491Z,78.96
2019-01-09T20:26:37.623Z,78.55
2019-01-09T20:29:46.939Z,78.86
2019-01-09T20:36:40.602Z,78.86
2019-01-09T20:43:06.093Z,78.80
2019-01-09T20:49:45.444Z,78.17
2019-01-09T20:59:54.164Z,77.49
2019-01-09T21:02:31.017Z,77.01
2019-01-09T21:12:06.430Z,76.54
2019-01-09T21:14:55.648Z,75.72
2019-01-09T21:17:45.672Z,76.20
2019-01-09T21:20:34.645Z,75.42
2019-01-09T21:26:32.254Z,75.36
2019-01-09T21:29:21.835Z,75.94
2019-01-09T21:32:30.194Z,75.05
2019-01-09T21:35:19.558Z,75.06
2019-01-09T21:38:27.646Z,75.24
2019-01-09T21:41:16.547Z,75.54
2019-01-09T21:44:05.528Z,74.99
2019-01-09T21:46:54.403Z,74.38
2019-01-09T21:49:43.302Z,74.51
2019-01-09T21:52:51.304Z,74.42
2019-01-09T21:55:40.136Z,75.01
2019-01-09T21:58:28.932Z,75.26
2019-01-09T22:01:17.828Z,75.46
2019-01-09T22:04:07.257Z,75.72
2019-01-09T22:06:56.038Z,76.26
2019-01-09T22:09:44.825Z,77.13
2019-01-09T22:12:33.636Z,76.33
2019-01-09T22:18:18.061Z,76.70
2019-01-09T22:21:06.918Z,76.65
2019-01-09T22:23:55.730Z,77.57
2019-01-09T22:26:37.204Z,76.77
2019-01-09T22:29:26.022Z,76.68
2019-01-09T22:32:14.804Z,75.94
2019-01-09T22:38:18.107Z,76.53
2019-01-09T22:41:06.984Z,77.31
2019-01-09T22:43:55.780Z,77.09
2019-01-09T22:46:44.570Z,77.80
2019-01-09T22:49:33.378Z,78.22
2019-01-09T22:52:41.257Z,77.86
2019-01-09T22:55:30.136Z,77.39
2019-01-09T22:58:18.924Z,77.58
2019-01-09T23:01:28.682Z,77.57
2019-01-09T23:07:26.886Z,78.30
2019-01-09T23:10:15.664Z,77.60
2019-01-09T23:16:19.386Z,77.79
2019-01-09T23:19:08.240Z,77.69
2019-01-09T23:21:57.101Z,77.06
2019-01-09T23:24:45.894Z,78.69
2019-01-09T23:27:27.669Z,78.23
2019-01-09T23:30:16.523Z,77.70
2019-01-09T23:33:05.404Z,77.51
2019-01-09T23:35:54.189Z,77.48
2019-01-09T23:39:02.032Z,77.37
2019-01-09T23:41:50.899Z,76.90
2019-01-09T23:44:39.699Z,77.55
2019-01-09T23:47:28.485Z,77.21
2019-01-09T23:50:17.473Z,77.39
2019-01-09T23:53:25.361Z,77.03
2019-01-09T23:56:14.176Z,77.83
2019-01-09T23:59:02.988Z,77.65
